createdAt,value
2018-03-14T00:00:38.188Z,0.00
2018-03-14T00:01:38.184Z,0.00
2018-03-14T00:02:38.177Z,0.00
2018-03-14T00:03:38.168Z,0.00
2018-03-14T00:04:38.221Z,0.00
2018-03-14T00:05:38.164Z,0.00
2018-03-14T00:06:38.166Z,0.00
2018-03-14T00:07:38.160Z,0.00
2018-03-14T00:08:38.170Z,0.00
2018-03-14T00:09:38.147Z,0.00
2018-03-14T00:10:38.148Z,0.00
2018-03-14T00:11:38.142Z,0.00
2018-03-14T00:12:38.130Z,0.00
2018-03-14T00:13:38.123Z,0.00
2018-03-14T00:14:38.119Z,0.00
2018-03-14T00:15:38.115Z,0.00
2018-03-14T00:16:38.111Z,0.00
2018-03-14T00:17:38.115Z,0.00
2018-03-14T00:18:38.101Z,0.00
2018-03-14T00:19:38.094Z,0.00
2018-03-14T00:20:38.091Z,0.00
2018-03-14T00:21:38.086Z,0.00
2018-03-14T00:22:38.084Z,0.00
2018-03-14T00:23:38.077Z,0.00
2018-03-14T00:24:38.106Z,0.00
2018-03-14T00:25:38.072Z,0.00
2018-03-14T00:26:38.066Z,0.00
2018-03-14T00:27:38.058Z,0.00
2018-03-14T00:28:38.054Z,0.00
2018-03-14T00:29:38.051Z,0.00
2018-03-14T00:30:38.046Z,0.00
2018-03-14T00:31:38.038Z,0.00
2018-03-14T00:32:38.037Z,0.00
2018-03-14T00:33:38.027Z,0.00
2018-03-14T00:34:38.024Z,0.00
2018-03-14T00:35:38.037Z,0.00
2018-03-14T00:36:38.014Z,0.00
2018-03-14T00:37:38.012Z,0.00
2018-03-14T00:38:38.007Z,0.00
2018-03-14T00:39:38.037Z,0.00
2018-03-14T00:40:37.995Z,0.00
2018-03-14T00:41:37.995Z,0.00
2018-03-14T00:42:37.988Z,0.00
2018-03-14T00:43:38.011Z,0.00
2018-03-14T00:44:37.983Z,0.00
2018-03-14T00:45:37.977Z,0.00
2018-03-14T00:46:37.968Z,0.00
2018-03-14T00:47:37.964Z,0.00
2018-03-14T00:48:37.956Z,0.00
2018-03-14T00:49:37.976Z,0.00
2018-03-14T00:50:37.974Z,0.00
2018-03-14T00:51:37.944Z,0.00
2018-03-14T00:52:37.938Z,0.00
2018-03-14T00:53:37.934Z,0.00
2018-03-14T00:54:37.938Z,0.00
2018-03-14T00:55:37.922Z,0.00
2018-03-14T00:56:37.941Z,0.00
2018-03-14T00:57:39.446Z,0.00
2018-03-14T00:58:37.933Z,0.00
2018-03-14T00:59:37.906Z,0.00
2018-03-14T01:00:37.925Z,0.00
2018-03-14T01:01:37.898Z,0.00
2018-03-14T01:02:37.892Z,0.00
2018-03-14T01:03:37.884Z,0.00
2018-03-14T01:04:37.879Z,0.00
2018-03-14T01:05:37.929Z,0.00
2018-03-14T01:06:37.874Z,0.00
2018-03-14T01:07:37.875Z,0.00
2018-03-14T01:08:37.865Z,0.00
2018-03-14T01:09:37.858Z,0.00
2018-03-14T01:10:37.859Z,0.00
2018-03-14T01:11:37.847Z,0.00
2018-03-14T01:12:37.869Z,0.00
2018-03-14T01:13:37.842Z,0.00
2018-03-14T01:14:37.834Z,0.00
2018-03-14T01:15:37.830Z,0.00
2018-03-14T01:16:37.824Z,0.00
2018-03-14T01:17:37.823Z,0.00
2018-03-14T01:18:37.854Z,0.00
2018-03-14T01:19:37.810Z,0.00
2018-03-14T01:20:37.804Z,0.00
2018-03-14T01:21:37.801Z,0.00
2018-03-14T01:22:37.797Z,0.00
2018-03-14T01:23:37.790Z,0.00
2018-03-14T01:24:37.787Z,0.00
2018-03-14T01:25:37.775Z,0.00
2018-03-14T01:26:37.773Z,0.00
2018-03-14T01:27:37.771Z,0.00
2018-03-14T01:28:37.770Z,0.00
2018-03-14T01:29:37.764Z,0.00
2018-03-14T01:30:37.755Z,0.00
2018-03-14T01:31:37.751Z,0.00
2018-03-14T01:32:37.744Z,0.00
2018-03-14T01:33:37.743Z,0.00
2018-03-14T01:34:37.736Z,0.00
2018-03-14T01:35:37.749Z,0.00
2018-03-14T01:36:37.730Z,0.00
2018-03-14T01:37:37.724Z,0.00
2018-03-14T01:38:37.716Z,0.00
2018-03-14T01:39:37.708Z,0.00
2018-03-14T01:40:37.718Z,0.00
2018-03-14T01:41:37.701Z,0.00
2018-03-14T01:42:37.695Z,0.00
2018-03-14T01:43:37.690Z,0.00
2018-03-14T01:44:37.684Z,0.00
2018-03-14T01:45:37.688Z,0.00
2018-03-14T01:46:37.677Z,0.00
2018-03-14T01:47:37.711Z,0.00
2018-03-14T01:48:37.665Z,0.00
2018-03-14T01:49:37.667Z,0.00
2018-03-14T01:50:37.656Z,0.00
2018-03-14T01:51:37.654Z,0.00
2018-03-14T01:52:37.647Z,0.00
2018-03-14T01:53:37.642Z,0.00
2018-03-14T01:54:37.637Z,0.00
2018-03-14T01:55:37.632Z,0.00
2018-03-14T01:56:37.622Z,0.00
2018-03-14T01:57:37.626Z,0.00
2018-03-14T01:58:37.617Z,0.00
2018-03-14T01:59:37.611Z,0.00
2018-03-14T02:00:37.606Z,0.00
2018-03-14T02:01:37.605Z,0.00
2018-03-14T02:02:37.600Z,0.00
2018-03-14T02:03:37.595Z,0.00
2018-03-14T02:04:37.588Z,0.00
2018-03-14T02:05:37.582Z,0.00
2018-03-14T02:06:37.575Z,0.00
2018-03-14T02:07:37.575Z,0.00
2018-03-14T02:08:37.568Z,0.00
2018-03-14T02:09:37.565Z,0.00
2018-03-14T02:10:37.560Z,0.00
2018-03-14T02:11:37.552Z,0.00
2018-03-14T02:12:37.551Z,0.00
2018-03-14T02:13:37.540Z,0.00
2018-03-14T02:14:37.538Z,0.00
2018-03-14T02:15:37.534Z,0.00
2018-03-14T02:16:37.528Z,0.00
2018-03-14T02:17:37.522Z,0.00
2018-03-14T02:18:37.518Z,0.00
2018-03-14T02:19:37.514Z,0.00
2018-03-14T02:20:37.508Z,0.00
2018-03-14T02:21:37.503Z,0.00
2018-03-14T02:22:37.499Z,0.00
2018-03-14T02:23:37.495Z,0.00
2018-03-14T02:24:37.498Z,0.00
2018-03-14T02:25:37.482Z,0.00
2018-03-14T02:26:37.476Z,0.00
2018-03-14T02:27:37.474Z,0.00
2018-03-14T02:28:37.469Z,0.00
2018-03-14T02:29:37.463Z,0.00
2018-03-14T02:30:37.458Z,0.00
2018-03-14T02:31:37.466Z,0.00
2018-03-14T02:32:37.450Z,0.00
2018-03-14T02:33:37.446Z,0.00
2018-03-14T02:34:37.434Z,0.00
2018-03-14T02:35:37.431Z,0.00
2018-03-14T02:36:37.427Z,0.00
2018-03-14T02:37:37.419Z,0.00
2018-03-14T02:38:37.416Z,0.00
2018-03-14T02:39:37.408Z,0.00
2018-03-14T02:40:37.410Z,0.00
2018-03-14T02:41:37.402Z,0.00
2018-03-14T02:42:37.400Z,0.00
2018-03-14T02:43:37.412Z,0.00
2018-03-14T02:44:37.413Z,0.00
2018-03-14T02:45:37.385Z,0.00
2018-03-14T02:46:37.380Z,0.00
2018-03-14T02:47:37.373Z,0.00
2018-03-14T02:48:37.374Z,0.00
2018-03-14T02:49:37.366Z,0.00
2018-03-14T02:50:37.386Z,0.00
2018-03-14T02:51:37.351Z,0.00
2018-03-14T02:52:37.347Z,0.00
2018-03-14T02:53:37.351Z,0.00
2018-03-14T02:54:37.339Z,0.00
2018-03-14T02:55:37.330Z,0.00
2018-03-14T02:56:37.330Z,0.00
2018-03-14T02:57:37.322Z,0.00
2018-03-14T02:58:37.318Z,0.00
2018-03-14T02:59:37.317Z,0.00
2018-03-14T03:00:37.306Z,0.00
2018-03-14T03:01:37.329Z,0.00
2018-03-14T03:02:37.299Z,0.00
2018-03-14T03:03:37.290Z,0.00
2018-03-14T03:04:37.287Z,0.00
2018-03-14T03:05:37.291Z,0.00
2018-03-14T03:06:37.282Z,0.00
2018-03-14T03:07:37.273Z,0.00
2018-03-14T03:08:37.305Z,0.00
2018-03-14T03:09:37.300Z,0.00
2018-03-14T03:10:37.259Z,0.00
2018-03-14T03:11:37.259Z,0.00
2018-03-14T03:12:37.249Z,0.00
2018-03-14T03:13:37.241Z,0.00
2018-03-14T03:14:37.238Z,0.00
2018-03-14T03:15:37.314Z,0.00
2018-03-14T03:16:37.279Z,0.00
2018-03-14T03:17:37.220Z,0.00
2018-03-14T03:18:37.214Z,0.00
2018-03-14T03:19:37.252Z,0.00
2018-03-14T03:20:37.203Z,0.00
2018-03-14T03:21:37.234Z,0.00
2018-03-14T03:22:37.195Z,0.00
2018-03-14T03:23:37.190Z,0.00
2018-03-14T03:24:37.188Z,0.00
2018-03-14T03:25:37.182Z,0.00
2018-03-14T03:26:37.175Z,0.00
2018-03-14T03:27:37.172Z,0.00
2018-03-14T03:28:37.164Z,0.00
2018-03-14T03:29:37.164Z,0.00
2018-03-14T03:30:37.166Z,0.00
2018-03-14T03:31:37.151Z,0.00
2018-03-14T03:32:37.146Z,0.00
2018-03-14T03:33:37.192Z,0.00
2018-03-14T03:34:37.135Z,0.00
2018-03-14T03:35:37.176Z,0.00
2018-03-14T03:36:37.127Z,0.00
2018-03-14T03:37:37.118Z,0.00
2018-03-14T03:38:37.115Z,0.00
2018-03-14T03:39:37.132Z,0.00
2018-03-14T03:40:37.102Z,0.00
2018-03-14T03:41:37.123Z,0.00
2018-03-14T03:42:37.092Z,0.00
2018-03-14T03:43:37.086Z,0.00
2018-03-14T03:44:37.085Z,0.00
2018-03-14T03:45:37.075Z,0.00
2018-03-14T03:46:37.070Z,0.00
2018-03-14T03:47:37.066Z,0.00
2018-03-14T03:48:37.095Z,0.00
2018-03-14T03:49:37.066Z,0.00
2018-03-14T03:50:37.052Z,0.00
2018-03-14T03:51:37.044Z,0.00
2018-03-14T03:52:37.047Z,0.00
2018-03-14T03:53:37.067Z,0.00
2018-03-14T03:54:37.031Z,0.00
2018-03-14T03:55:37.023Z,0.00
2018-03-14T03:56:37.018Z,0.00
2018-03-14T03:57:37.016Z,0.00
2018-03-14T03:58:37.009Z,0.00
2018-03-14T03:59:37.000Z,0.00
2018-03-14T04:00:37.047Z,0.00
2018-03-14T04:01:37.021Z,0.00
2018-03-14T04:02:36.986Z,0.00
2018-03-14T04:03:36.979Z,0.00
2018-03-14T04:04:36.981Z,0.00
2018-03-14T04:05:36.999Z,0.00
2018-03-14T04:06:36.962Z,0.00
2018-03-14T04:07:36.954Z,0.00
2018-03-14T04:08:36.988Z,0.00
2018-03-14T04:09:36.952Z,0.00
2018-03-14T04:10:36.942Z,0.00
2018-03-14T04:11:36.938Z,0.00
2018-03-14T04:12:36.935Z,0.00
2018-03-14T04:13:36.926Z,0.00
2018-03-14T04:14:36.933Z,0.00
2018-03-14T04:15:36.914Z,0.00
2018-03-14T04:16:36.911Z,0.00
2018-03-14T04:17:36.947Z,0.00
2018-03-14T04:18:36.899Z,0.00
2018-03-14T04:19:36.894Z,0.00
2018-03-14T04:20:36.905Z,0.00
2018-03-14T04:21:36.884Z,0.00
2018-03-14T04:22:26.517Z,0.00
2018-03-14T04:23:26.482Z,0.00
2018-03-14T04:25:20.853Z,0.00
2018-03-14T04:26:20.849Z,0.00
2018-03-14T04:28:15.182Z,0.00
2018-03-14T04:29:15.177Z,0.00
2018-03-14T04:30:15.168Z,0.00
2018-03-14T04:31:15.162Z,0.00
2018-03-14T04:32:15.158Z,0.00
2018-03-14T04:33:15.152Z,0.00
2018-03-14T04:34:15.149Z,0.00
2018-03-14T04:35:15.138Z,0.00
2018-03-14T04:36:15.133Z,0.00
2018-03-14T04:37:15.127Z,0.00
2018-03-14T04:38:15.126Z,0.00
2018-03-14T04:39:15.126Z,0.00
2018-03-14T04:40:15.111Z,0.00
2018-03-14T04:41:15.107Z,0.00
2018-03-14T04:42:15.102Z,0.00
2018-03-14T04:43:15.096Z,0.00
2018-03-14T04:44:15.090Z,0.00
2018-03-14T04:45:15.086Z,0.00
2018-03-14T04:46:15.090Z,0.00
2018-03-14T04:47:15.079Z,0.00
2018-03-14T04:48:15.069Z,0.00
2018-03-14T04:49:15.081Z,0.00
2018-03-14T04:50:15.057Z,0.00
2018-03-14T04:51:15.050Z,0.00
2018-03-14T04:52:15.050Z,0.00
2018-03-14T04:53:15.045Z,0.00
2018-03-14T04:54:15.045Z,0.00
2018-03-14T04:55:15.039Z,0.00
2018-03-14T04:56:15.029Z,0.00
2018-03-14T04:57:15.023Z,0.00
2018-03-14T04:58:15.019Z,0.00
2018-03-14T04:59:15.012Z,0.00
2018-03-14T05:00:15.007Z,0.00
2018-03-14T05:01:15.001Z,0.00
2018-03-14T05:02:15.037Z,0.00
2018-03-14T05:03:14.989Z,0.00
2018-03-14T05:04:14.983Z,0.00
2018-03-14T05:05:14.977Z,0.00
2018-03-14T05:06:14.977Z,0.00
2018-03-14T05:07:14.969Z,0.00
2018-03-14T05:08:14.966Z,0.00
2018-03-14T05:09:14.957Z,0.00
2018-03-14T05:10:14.952Z,0.00
2018-03-14T05:11:14.956Z,0.00
2018-03-14T05:12:14.962Z,0.00
2018-03-14T05:13:14.937Z,0.00
2018-03-14T05:14:14.996Z,0.00
2018-03-14T05:15:14.924Z,0.00
2018-03-14T05:16:14.920Z,0.00
2018-03-14T05:17:14.916Z,0.00
2018-03-14T05:18:14.912Z,0.00
2018-03-14T05:19:14.904Z,0.00
2018-03-14T05:20:14.902Z,0.00
2018-03-14T05:21:14.897Z,4.00
2018-03-14T05:22:14.890Z,4.00
2018-03-14T05:23:14.888Z,4.00
2018-03-14T05:24:14.896Z,0.00
2018-03-14T05:25:14.881Z,4.00
2018-03-14T05:26:14.879Z,4.00
2018-03-14T05:27:14.875Z,4.00
2018-03-14T05:28:14.857Z,4.00
2018-03-14T05:29:14.882Z,4.00
2018-03-14T05:30:14.849Z,8.00
2018-03-14T05:31:14.848Z,4.00
2018-03-14T05:32:14.838Z,8.00
2018-03-14T05:33:14.833Z,8.00
2018-03-14T05:34:14.827Z,8.00
2018-03-14T05:35:14.823Z,12.00
2018-03-14T05:36:14.816Z,16.00
2018-03-14T05:37:14.810Z,16.00
2018-03-14T05:38:14.803Z,20.00
2018-03-14T05:39:14.802Z,24.00
2018-03-14T05:40:14.795Z,24.00
2018-03-14T05:41:14.790Z,24.00
2018-03-14T05:42:14.785Z,24.00
2018-03-14T05:43:14.780Z,28.00
2018-03-14T05:44:14.773Z,32.00
2018-03-14T05:45:14.768Z,36.00
2018-03-14T05:46:14.777Z,40.00
2018-03-14T05:47:14.761Z,44.00
2018-03-14T05:48:14.753Z,48.00
2018-03-14T05:49:14.753Z,68.00
2018-03-14T05:50:14.742Z,72.00
2018-03-14T05:51:14.744Z,76.00
2018-03-14T05:52:14.732Z,68.00
2018-03-14T05:53:14.737Z,72.00
2018-03-14T05:54:14.727Z,80.00
2018-03-14T05:55:14.717Z,80.00
2018-03-14T05:56:14.710Z,76.00
2018-03-14T05:57:14.704Z,80.00
2018-03-14T05:58:14.701Z,80.00
2018-03-14T05:59:14.697Z,88.00
2018-03-14T06:00:14.692Z,88.00
2018-03-14T06:01:14.691Z,80.00
2018-03-14T06:02:14.681Z,80.00
2018-03-14T06:03:14.674Z,84.00
2018-03-14T06:04:14.677Z,88.00
2018-03-14T06:05:14.666Z,84.00
2018-03-14T06:06:14.662Z,84.00
2018-03-14T06:07:14.664Z,88.00
2018-03-14T06:08:14.669Z,108.00
2018-03-14T06:09:14.655Z,120.00
2018-03-14T06:10:14.638Z,132.00
2018-03-14T06:11:14.631Z,128.00
2018-03-14T06:12:14.628Z,124.00
2018-03-14T06:13:14.629Z,112.00
2018-03-14T06:14:14.626Z,104.00
2018-03-14T06:15:14.618Z,100.00
2018-03-14T06:16:14.609Z,100.00
2018-03-14T06:17:14.604Z,116.00
2018-03-14T06:18:14.596Z,108.00
2018-03-14T06:19:14.612Z,112.00
2018-03-14T06:20:14.586Z,108.00
2018-03-14T06:21:14.583Z,96.00
2018-03-14T06:22:14.590Z,100.00
2018-03-14T06:23:14.573Z,108.00
2018-03-14T06:24:14.569Z,100.00
2018-03-14T06:25:14.565Z,104.00
2018-03-14T06:26:14.559Z,116.00
2018-03-14T06:27:14.553Z,128.00
2018-03-14T06:28:14.550Z,136.00
2018-03-14T06:29:14.542Z,144.00
2018-03-14T06:30:14.538Z,156.00
2018-03-14T06:31:14.532Z,156.00
2018-03-14T06:32:14.527Z,164.00
2018-03-14T06:33:14.523Z,164.00
2018-03-14T06:34:14.518Z,160.00
2018-03-14T06:35:14.514Z,156.00
2018-03-14T06:36:14.508Z,184.00
2018-03-14T06:37:14.503Z,188.00
2018-03-14T06:38:14.504Z,164.00
2018-03-14T06:39:14.493Z,136.00
2018-03-14T06:40:14.488Z,128.00
2018-03-14T06:41:14.485Z,136.00
2018-03-14T06:42:14.476Z,148.00
2018-03-14T06:43:14.475Z,176.00
2018-03-14T06:44:14.467Z,208.00
2018-03-14T06:45:14.476Z,216.00
2018-03-14T06:46:14.552Z,224.00
2018-03-14T06:47:14.501Z,244.00
2018-03-14T06:52:14.722Z,260.00
2018-03-14T06:53:14.639Z,244.00
2018-03-14T06:55:09.050Z,240.00
2018-03-14T06:56:09.072Z,272.00
2018-03-14T06:58:03.378Z,364.00
2018-03-14T06:59:03.418Z,360.00
2018-03-14T07:00:57.747Z,432.00
2018-03-14T07:01:57.710Z,484.00
2018-03-14T07:03:52.086Z,640.00
2018-03-14T07:04:52.092Z,780.00
2018-03-14T07:06:46.448Z,864.00
2018-03-14T07:07:46.400Z,924.00
2018-03-14T07:09:40.791Z,912.00
2018-03-14T07:10:40.763Z,864.00
2018-03-14T07:12:35.129Z,1128.00
2018-03-14T07:13:35.118Z,1368.00
2018-03-14T07:15:29.515Z,1584.00
2018-03-14T07:16:29.523Z,1616.00
2018-03-14T07:18:23.846Z,1632.00
2018-03-14T07:19:23.909Z,1660.00
2018-03-14T07:21:18.234Z,1548.00
2018-03-14T07:22:18.286Z,1440.00
2018-03-14T07:24:12.568Z,1192.00
2018-03-14T07:25:12.538Z,1252.00
2018-03-14T07:27:06.918Z,1444.00
2018-03-14T07:28:06.964Z,1552.00
2018-03-14T07:30:02.233Z,1480.00
2018-03-14T07:31:02.221Z,1584.00
2018-03-14T07:32:56.624Z,1752.00
2018-03-14T07:33:56.610Z,1804.00
2018-03-14T07:35:50.923Z,1880.00
2018-03-14T07:36:50.914Z,1888.00
2018-03-14T07:38:45.346Z,1992.00
2018-03-14T07:39:45.300Z,2048.00
2018-03-14T07:41:39.663Z,2192.00
2018-03-14T07:42:39.658Z,2228.00
2018-03-14T07:44:34.041Z,2436.00
2018-03-14T07:45:34.042Z,2424.00
2018-03-14T07:47:28.401Z,2720.00
2018-03-14T07:48:28.381Z,3040.00
2018-03-14T07:50:22.725Z,2824.00
2018-03-14T07:51:22.718Z,2292.00
2018-03-14T07:53:17.107Z,1976.00
2018-03-14T07:54:17.105Z,1816.00
2018-03-14T07:56:11.440Z,1448.00
2018-03-14T07:57:11.455Z,1264.00
2018-03-14T07:59:05.841Z,1100.00
2018-03-14T08:00:05.792Z,1120.00
2018-03-14T08:02:00.169Z,1184.00
2018-03-14T08:03:00.136Z,1124.00
2018-03-14T08:04:54.535Z,988.00
2018-03-14T08:05:54.515Z,1008.00
2018-03-14T08:07:48.902Z,1016.00
2018-03-14T08:08:48.892Z,888.00
2018-03-14T08:10:43.252Z,728.00
2018-03-14T08:11:43.205Z,716.00
2018-03-14T08:13:37.720Z,712.00
2018-03-14T08:14:37.573Z,724.00
2018-03-14T08:16:31.943Z,720.00
2018-03-14T08:17:31.936Z,708.00
2018-03-14T08:19:26.302Z,620.00
2018-03-14T08:20:26.269Z,588.00
2018-03-14T08:22:20.635Z,588.00
2018-03-14T08:23:20.631Z,556.00
2018-03-14T08:25:15.024Z,496.00
2018-03-14T08:26:14.994Z,532.00
2018-03-14T08:28:09.351Z,532.00
2018-03-14T08:29:09.358Z,568.00
2018-03-14T08:31:03.728Z,560.00
2018-03-14T08:32:03.718Z,572.00
2018-03-14T08:33:58.096Z,544.00
2018-03-14T08:34:58.189Z,528.00
2018-03-14T08:36:52.439Z,620.00
2018-03-14T08:37:52.425Z,720.00
2018-03-14T08:39:46.812Z,736.00
2018-03-14T08:40:46.763Z,768.00
2018-03-14T08:42:41.141Z,796.00
2018-03-14T08:43:41.102Z,840.00
2018-03-14T08:45:35.489Z,940.00
2018-03-14T08:46:35.489Z,988.00
2018-03-14T08:48:29.972Z,1060.00
2018-03-14T08:49:30.023Z,1040.00
2018-03-14T08:51:24.389Z,1068.00
2018-03-14T08:52:24.347Z,1272.00
2018-03-14T08:54:18.721Z,1532.00
2018-03-14T08:55:18.715Z,1484.00
2018-03-14T08:57:13.050Z,1316.00
2018-03-14T08:58:13.063Z,1216.00
2018-03-14T09:00:07.386Z,1072.00
2018-03-14T09:01:07.405Z,1124.00
2018-03-14T09:03:01.754Z,1164.00
2018-03-14T09:04:01.727Z,1148.00
2018-03-14T09:05:56.093Z,1136.00
2018-03-14T09:06:56.128Z,1152.00
2018-03-14T09:08:50.487Z,1320.00
2018-03-14T09:09:50.453Z,1420.00
2018-03-14T09:11:44.818Z,1368.00
2018-03-14T09:12:44.824Z,1284.00
2018-03-14T09:14:39.217Z,1128.00
2018-03-14T09:15:39.169Z,964.00
2018-03-14T09:17:33.530Z,828.00
2018-03-14T09:18:33.534Z,840.00
2018-03-14T09:20:27.867Z,928.00
2018-03-14T09:21:27.857Z,1020.00
2018-03-14T09:23:22.231Z,1216.00
2018-03-14T09:24:22.210Z,1332.00
2018-03-14T09:26:16.578Z,1596.00
2018-03-14T09:27:16.599Z,1696.00
2018-03-14T09:29:11.158Z,1760.00
2018-03-14T09:30:11.123Z,1588.00
2018-03-14T09:32:05.483Z,1540.00
2018-03-14T09:33:05.483Z,1652.00
2018-03-14T09:34:59.911Z,2620.00
2018-03-14T09:35:59.892Z,10380.00
2018-03-14T09:37:54.216Z,6964.00
2018-03-14T09:38:54.208Z,4640.00
2018-03-14T09:40:48.616Z,3304.00
2018-03-14T09:41:48.585Z,2952.00
2018-03-14T09:43:42.978Z,2492.00
2018-03-14T09:44:42.917Z,2232.00
2018-03-14T09:45:42.913Z,2016.00
2018-03-14T09:46:42.908Z,1704.00
2018-03-14T09:47:42.900Z,1404.00
2018-03-14T09:48:42.900Z,1240.00
2018-03-14T09:49:42.900Z,1092.00
2018-03-14T09:50:42.894Z,1120.00
2018-03-14T09:51:42.895Z,1208.00
2018-03-14T09:52:42.886Z,1432.00
2018-03-14T09:53:42.883Z,1684.00
2018-03-14T09:54:42.879Z,1980.00
2018-03-14T09:55:42.877Z,2196.00
2018-03-14T09:56:42.874Z,2364.00
2018-03-14T09:57:42.885Z,2520.00
2018-03-14T09:58:42.871Z,2804.00
2018-03-14T09:59:42.860Z,3388.00
2018-03-14T10:00:42.907Z,3216.00
2018-03-14T10:01:42.855Z,3532.00
2018-03-14T10:02:42.849Z,4028.00
2018-03-14T10:03:42.856Z,4612.00
2018-03-14T10:04:42.840Z,6436.00
2018-03-14T10:05:42.840Z,7288.00
2018-03-14T10:06:42.837Z,9420.00
2018-03-14T10:07:42.829Z,8208.00
2018-03-14T10:08:42.831Z,9696.00
2018-03-14T10:09:42.824Z,15488.00
2018-03-14T10:10:42.821Z,10136.00
2018-03-14T10:11:42.817Z,9060.00
2018-03-14T10:12:42.813Z,8800.00
2018-03-14T10:13:42.814Z,8264.00
2018-03-14T10:14:42.810Z,7468.00
2018-03-14T10:15:42.805Z,6644.00
2018-03-14T10:16:42.807Z,5172.00
2018-03-14T10:17:42.802Z,4000.00
2018-03-14T10:18:42.798Z,3136.00
2018-03-14T10:19:42.798Z,2668.00
2018-03-14T10:20:42.793Z,2516.00
2018-03-14T10:21:42.789Z,2628.00
2018-03-14T10:22:42.788Z,2992.00
2018-03-14T10:23:42.786Z,3304.00
2018-03-14T10:24:42.783Z,3088.00
2018-03-14T10:25:42.795Z,3172.00
2018-03-14T10:26:42.785Z,3232.00
2018-03-14T10:27:42.774Z,2972.00
2018-03-14T10:28:42.770Z,2744.00
2018-03-14T10:29:42.770Z,2460.00
2018-03-14T10:30:42.773Z,2344.00
2018-03-14T10:31:42.762Z,2116.00
2018-03-14T10:32:42.765Z,2100.00
2018-03-14T10:33:42.759Z,2140.00
2018-03-14T10:34:42.756Z,2124.00
2018-03-14T10:35:42.754Z,1964.00
2018-03-14T10:36:42.767Z,1760.00
2018-03-14T10:37:42.749Z,1660.00
2018-03-14T10:38:42.749Z,1680.00
2018-03-14T10:39:42.745Z,1832.00
2018-03-14T10:40:42.741Z,1820.00
2018-03-14T10:41:42.737Z,1860.00
2018-03-14T10:42:42.736Z,1832.00
2018-03-14T10:43:42.732Z,1832.00
2018-03-14T10:44:42.733Z,2044.00
2018-03-14T10:45:42.732Z,2360.00
2018-03-14T10:46:42.726Z,2524.00
2018-03-14T10:47:42.724Z,2412.00
2018-03-14T10:48:42.719Z,2552.00
2018-03-14T10:49:42.723Z,2460.00
2018-03-14T10:50:42.713Z,2392.00
2018-03-14T10:51:42.713Z,2368.00
2018-03-14T10:52:42.711Z,2396.00
2018-03-14T10:53:42.706Z,2468.00
2018-03-14T10:54:42.701Z,2544.00
2018-03-14T10:55:42.701Z,2764.00
2018-03-14T10:56:42.695Z,3220.00
2018-03-14T10:57:42.693Z,3460.00
2018-03-14T10:58:42.689Z,3488.00
2018-03-14T10:59:42.693Z,3356.00
2018-03-14T11:00:42.687Z,3220.00
2018-03-14T11:01:42.703Z,3196.00
2018-03-14T11:02:42.687Z,3484.00
2018-03-14T11:03:42.678Z,3368.00
2018-03-14T11:04:42.678Z,3048.00
2018-03-14T11:05:42.674Z,3228.00
2018-03-14T11:06:42.671Z,3288.00
2018-03-14T11:07:42.716Z,3032.00
2018-03-14T11:08:42.667Z,2860.00
2018-03-14T11:09:42.663Z,2940.00
2018-03-14T11:10:42.661Z,3152.00
2018-03-14T11:11:42.657Z,3052.00
2018-03-14T11:12:42.656Z,3016.00
2018-03-14T11:13:42.651Z,2784.00
2018-03-14T11:14:42.650Z,2924.00
2018-03-14T11:15:42.649Z,3412.00
2018-03-14T11:16:42.647Z,3904.00
2018-03-14T11:17:42.642Z,4204.00
2018-03-14T11:18:42.644Z,4692.00
2018-03-14T11:19:42.638Z,4912.00
2018-03-14T11:20:42.635Z,4856.00
2018-03-14T11:21:42.644Z,4420.00
2018-03-14T11:22:42.629Z,3972.00
2018-03-14T11:23:42.630Z,3760.00
2018-03-14T11:24:42.635Z,3392.00
2018-03-14T11:25:42.624Z,3324.00
2018-03-14T11:26:42.622Z,3300.00
2018-03-14T11:27:42.620Z,3232.00
2018-03-14T11:28:42.617Z,3252.00
2018-03-14T11:29:42.620Z,3284.00
2018-03-14T11:30:42.614Z,3468.00
2018-03-14T11:31:42.610Z,3712.00
2018-03-14T11:32:42.606Z,3644.00
2018-03-14T11:33:42.606Z,3544.00
2018-03-14T11:34:42.609Z,3868.00
2018-03-14T11:35:42.614Z,3428.00
2018-03-14T11:36:42.598Z,3220.00
2018-03-14T11:37:42.594Z,3100.00
2018-03-14T11:38:42.594Z,2920.00
2018-03-14T11:39:42.591Z,2624.00
2018-03-14T11:40:42.588Z,2392.00
2018-03-14T11:41:42.587Z,2156.00
2018-03-14T11:42:42.585Z,2012.00
2018-03-14T11:43:42.600Z,1844.00
2018-03-14T11:44:42.592Z,1680.00
2018-03-14T11:45:42.577Z,1592.00
2018-03-14T11:46:42.574Z,1464.00
2018-03-14T11:47:42.573Z,1384.00
2018-03-14T11:48:42.570Z,1340.00
2018-03-14T11:49:42.570Z,1292.00
2018-03-14T11:50:42.566Z,1244.00
2018-03-14T11:51:42.595Z,1204.00
2018-03-14T11:52:42.561Z,1180.00
2018-03-14T11:53:42.556Z,1152.00
2018-03-14T11:54:42.555Z,1164.00
2018-03-14T11:55:42.556Z,1184.00
2018-03-14T11:56:42.552Z,1208.00
2018-03-14T11:57:42.550Z,1220.00
2018-03-14T11:58:42.577Z,1240.00
2018-03-14T11:59:42.541Z,1272.00
2018-03-14T12:00:42.540Z,1316.00
2018-03-14T12:01:42.536Z,1360.00
2018-03-14T12:02:42.532Z,1416.00
2018-03-14T12:03:42.530Z,1476.00
2018-03-14T12:04:42.528Z,1516.00
2018-03-14T12:05:42.529Z,1568.00
2018-03-14T12:06:42.521Z,1620.00
2018-03-14T12:07:42.521Z,1672.00
2018-03-14T12:08:42.516Z,1652.00
2018-03-14T12:09:42.512Z,1616.00
2018-03-14T12:10:42.511Z,1576.00
2018-03-14T12:11:42.507Z,1548.00
2018-03-14T12:12:42.504Z,1524.00
2018-03-14T12:13:42.501Z,1508.00
2018-03-14T12:14:42.498Z,1500.00
2018-03-14T12:15:42.495Z,1500.00
2018-03-14T12:16:42.490Z,1496.00
2018-03-14T12:17:42.489Z,1520.00
2018-03-14T12:18:42.497Z,1520.00
2018-03-14T12:19:42.483Z,1472.00
2018-03-14T12:20:42.482Z,1460.00
2018-03-14T12:21:42.527Z,1464.00
2018-03-14T12:22:42.471Z,1464.00
2018-03-14T12:23:42.470Z,1480.00
2018-03-14T12:24:42.473Z,1520.00
2018-03-14T12:25:42.470Z,1572.00
2018-03-14T12:26:42.463Z,1664.00
2018-03-14T12:27:42.458Z,1704.00
2018-03-14T12:28:42.487Z,1720.00
2018-03-14T12:29:42.453Z,1744.00
2018-03-14T12:30:42.453Z,1840.00
2018-03-14T12:31:42.449Z,1864.00
2018-03-14T12:32:42.443Z,1920.00
2018-03-14T12:33:42.437Z,1992.00
2018-03-14T12:34:42.477Z,2072.00
2018-03-14T12:35:42.432Z,2104.00
2018-03-14T12:36:42.431Z,2164.00
2018-03-14T12:37:42.426Z,2264.00
2018-03-14T12:38:42.433Z,2496.00
2018-03-14T12:39:42.430Z,2612.00
2018-03-14T12:40:42.419Z,2664.00
2018-03-14T12:41:42.443Z,2768.00
2018-03-14T12:42:42.413Z,2936.00
2018-03-14T12:43:42.434Z,3096.00
2018-03-14T12:44:42.408Z,3176.00
2018-03-14T12:45:44.000Z,3268.00
2018-03-14T12:46:42.399Z,3484.00
2018-03-14T12:47:42.421Z,3480.00
2018-03-14T12:48:42.404Z,3316.00
2018-03-14T12:49:42.406Z,3168.00
2018-03-14T12:50:42.389Z,3072.00
2018-03-14T12:51:42.385Z,3044.00
2018-03-14T12:52:42.405Z,3024.00
2018-03-14T12:53:42.384Z,2992.00
2018-03-14T12:54:42.381Z,2964.00
2018-03-14T12:55:42.376Z,2892.00
2018-03-14T12:56:42.383Z,2764.00
2018-03-14T12:57:42.373Z,2820.00
2018-03-14T12:58:42.373Z,2812.00
2018-03-14T12:59:42.367Z,2784.00
2018-03-14T13:00:42.361Z,2700.00
2018-03-14T13:01:42.361Z,2712.00
2018-03-14T13:02:42.356Z,2700.00
2018-03-14T13:03:42.353Z,2644.00
2018-03-14T13:04:42.352Z,2588.00
2018-03-14T13:05:42.350Z,2500.00
2018-03-14T13:06:42.348Z,2508.00
2018-03-14T13:07:42.344Z,2528.00
2018-03-14T13:08:42.347Z,2620.00
2018-03-14T13:09:42.341Z,2640.00
2018-03-14T13:10:44.001Z,2692.00
2018-03-14T13:11:42.362Z,2732.00
2018-03-14T13:12:42.360Z,2844.00
2018-03-14T13:13:42.329Z,3024.00
2018-03-14T13:14:42.328Z,3340.00
2018-03-14T13:15:42.324Z,3512.00
2018-03-14T13:16:42.320Z,3356.00
2018-03-14T13:17:42.317Z,3300.00
2018-03-14T13:18:42.314Z,3240.00
2018-03-14T13:19:42.314Z,3276.00
2018-03-14T13:20:42.310Z,3260.00
2018-03-14T13:21:42.339Z,3236.00
2018-03-14T13:22:42.335Z,3276.00
2018-03-14T13:23:42.305Z,3140.00
2018-03-14T13:24:42.302Z,3080.00
2018-03-14T13:25:42.300Z,3068.00
2018-03-14T13:26:42.309Z,3064.00
2018-03-14T13:27:42.330Z,3028.00
2018-03-14T13:28:42.292Z,3020.00
2018-03-14T13:29:42.331Z,3004.00
2018-03-14T13:30:42.306Z,2968.00
2018-03-14T13:31:42.290Z,2864.00
2018-03-14T13:32:42.317Z,2824.00
2018-03-14T13:33:42.303Z,2860.00
2018-03-14T13:34:42.299Z,2916.00
2018-03-14T13:35:42.280Z,2984.00
2018-03-14T13:36:42.329Z,3048.00
2018-03-14T13:37:42.281Z,3048.00
2018-03-14T13:38:42.277Z,3192.00
2018-03-14T13:39:42.287Z,2896.00